Time;durP1;ratioP1;P1;durP2;ratioP2;P2;SDS_P1;SDS_P2;PMS_P1;PMS_P2;Temp;Humidity;BMP_temperature;BMP_pressure;BME280_temperature;BME280_humidity;BME280_pressure;Samples;Min_cycle;Max_cycle;Signal;HPM_P1;HPM_P2
2022/04/23 00:00:23;;;;;;;60.48;32.10;;;;;;;6.39;75.36;93449.73;1647923;87;21079;-48
2022/04/23 00:02:50;;;;;;;56.92;30.77;;;;;;;6.44;75.34;93446.39;1647791;87;21268;-52
2022/04/23 00:05:16;;;;;;;50.12;29.75;;;;;;;6.49;75.10;93440.36;1647628;87;20944;-48
2022/04/23 00:07:45;;;;;;;62.48;34.80;;;;;;;6.55;75.18;93449.47;1640008;86;21015;-48
2022/04/23 00:10:12;;;;;;;58.28;34.45;;;;;;;6.58;75.07;93445.82;1648016;86;21035;-48
2022/04/23 00:12:42;;;;;;;67.55;38.67;;;;;;;6.57;75.11;93438.84;1647770;87;21035;-48
2022/04/23 00:15:10;;;;;;;68.62;39.78;;;;;;;6.56;75.06;93437.32;1647550;87;21295;-48
2022/04/23 00:17:37;;;;;;;78.00;40.40;;;;;;;6.57;75.21;93447.03;1627836;86;20956;-47
2022/04/23 00:20:06;;;;;;;74.62;38.08;;;;;;;6.58;75.08;93447.19;1647840;87;20979;-48
2022/04/23 00:22:36;;;;;;;66.75;36.25;;;;;;;6.58;75.07;93443.09;1647983;87;21109;-48
2022/04/23 00:25:06;;;;;;;54.38;30.32;;;;;;;6.56;74.94;93447.63;1647888;86;21019;-48
2022/04/23 00:27:33;;;;;;;50.12;27.13;;;;;;;6.55;74.98;93440.64;1648205;87;21134;-48
2022/04/23 00:30:00;;;;;;;54.50;30.77;;;;;;;6.57;75.19;93433.38;1647600;87;21054;-49
2022/04/23 00:32:30;;;;;;;61.28;34.45;;;;;;;6.59;75.24;93438.55;1647997;87;20968;-48
2022/04/23 00:34:58;;;;;;;60.58;34.20;;;;;;;6.62;75.07;93424.57;1647879;86;21099;-48
2022/04/23 00:37:25;;;;;;;80.32;42.35;;;;;;;6.60;74.86;93431.87;1647956;87;21029;-49
2022/04/23 00:39:52;;;;;;;73.67;41.23;;;;;;;6.48;74.94;93430.02;1647884;87;21313;-52
2022/04/23 00:42:21;;;;;;;73.80;41.30;;;;;;;6.42;75.19;93436.53;1647999;87;21054;-49
2022/04/23 00:44:47;;;;;;;68.25;39.70;;;;;;;6.35;75.41;93423.17;1647865;87;21483;-48
2022/04/23 00:47:14;;;;;;;72.00;39.30;;;;;;;6.35;75.64;93428.02;1647764;87;21015;-54
2022/04/23 00:49:42;;;;;;;62.93;37.85;;;;;;;6.32;75.56;93416.63;1647195;87;21031;-48
2022/04/23 00:52:09;;;;;;;75.57;38.70;;;;;;;6.30;75.86;93411.48;1647837;87;21924;-48
2022/04/23 00:54:35;;;;;;;70.25;37.55;;;;;;;6.30;76.00;93412.85;1647721;87;21004;-48
2022/04/23 00:57:05;;;;;;;71.25;38.38;;;;;;;6.33;76.42;93409.95;1647867;87;21019;-48
2022/04/23 00:59:32;;;;;;;54.75;30.60;;;;;;;6.37;76.27;93411.93;1647994;87;20990;-48
2022/04/23 01:02:03;;;;;;;56.05;31.10;;;;;;;6.39;76.08;93413.63;1648109;87;21443;-48
2022/04/23 01:04:30;;;;;;;52.45;29.65;;;;;;;6.40;76.07;93406.18;1648280;87;21504;-48
2022/04/23 01:06:59;;;;;;;48.83;27.95;;;;;;;6.42;75.87;93407.84;1648007;87;20964;-49
2022/04/23 01:09:26;;;;;;;55.80;30.35;;;;;;;6.41;75.85;93406.33;1647887;87;21027;-52
2022/04/23 01:11:54;;;;;;;50.55;28.38;;;;;;;6.41;76.08;93409.84;1647367;86;21004;-49
2022/04/23 01:14:21;;;;;;;48.70;27.27;;;;;;;6.45;76.06;93414.54;1647861;87;21090;-48
2022/04/23 01:16:48;;;;;;;61.75;33.60;;;;;;;6.51;76.20;93410.61;1647737;86;21258;-48
2022/04/23 01:19:17;;;;;;;50.73;28.47;;;;;;;6.55;76.04;93403.77;1648016;86;20967;-49
2022/04/23 01:21:45;;;;;;;41.10;23.85;;;;;;;6.59;76.07;93400.30;1647923;87;20976;-48
2022/04/23 01:24:12;;;;;;;29.67;18.75;;;;;;;6.62;75.82;93387.09;1647860;86;21028;-47
2022/04/23 01:26:39;;;;;;;59.20;34.60;;;;;;;6.63;75.75;93381.78;1648000;87;20964;-47
2022/04/23 01:29:07;;;;;;;60.23;34.23;;;;;;;6.65;75.58;93377.21;1648212;87;21068;-50
2022/04/23 01:31:34;;;;;;;64.75;37.48;;;;;;;6.57;75.54;93377.37;1647847;87;21486;-47
2022/04/23 01:34:01;;;;;;;49.15;31.00;;;;;;;6.39;75.86;93389.64;1638945;86;21078;-48
2022/04/23 01:36:28;;;;;;;50.58;29.30;;;;;;;6.25;76.31;93388.26;1647710;87;20986;-49
2022/04/23 01:38:55;;;;;;;55.65;30.12;;;;;;;6.21;76.65;93384.14;1647714;87;21018;-48
2022/04/23 01:41:22;;;;;;;50.30;30.25;;;;;;;6.21;76.59;93382.19;1637063;87;21159;-47
2022/04/23 01:43:50;;;;;;;57.00;34.25;;;;;;;6.20;76.69;93382.04;1647760;87;20972;-48
2022/04/23 01:46:18;;;;;;;59.73;35.40;;;;;;;6.18;76.87;93389.15;1647927;87;21444;-47
2022/04/23 01:48:45;;;;;;;61.70;34.58;;;;;;;6.16;77.00;93387.48;1647591;87;20967;-47
2022/04/23 01:51:14;;;;;;;56.02;33.38;;;;;;;6.16;77.30;93388.84;1647831;87;21503;-49
2022/04/23 01:53:41;;;;;;;51.40;30.80;;;;;;;6.21;77.17;93384.92;1647675;86;21114;-49
2022/04/23 01:56:07;;;;;;;51.55;28.65;;;;;;;6.22;76.96;93386.44;1647875;86;20976;-48
2022/04/23 01:58:34;;;;;;;48.10;28.55;;;;;;;6.21;77.01;93385.52;1648230;87;21031;-49
2022/04/23 02:01:02;;;;;;;48.80;27.82;;;;;;;6.18;77.15;93371.41;1647877;87;21083;-47
2022/04/23 02:03:30;;;;;;;49.88;27.32;;;;;;;6.17;77.18;93357.60;1627841;86;21452;-48
2022/04/23 02:05:58;;;;;;;47.75;28.90;;;;;;;6.17;77.33;93354.87;1647689;87;21113;-53
2022/04/23 02:08:26;;;;;;;49.13;30.27;;;;;;;6.14;77.38;93358.51;1647823;87;20968;-48
2022/04/23 02:10:55;;;;;;;49.50;28.30;;;;;;;6.10;77.67;93358.64;1647766;87;21575;-47
2022/04/23 02:13:23;;;;;;;41.15;23.52;;;;;;;6.10;77.75;93354.55;1647907;86;21023;-47
2022/04/23 02:15:51;;;;;;;41.13;25.57;;;;;;;6.09;77.82;93359.09;1647961;87;21079;-48
2022/04/23 02:18:18;;;;;;;35.65;21.65;;;;;;;6.07;77.77;93360.14;1647473;87;21264;-47
2022/04/23 02:20:46;;;;;;;34.00;21.23;;;;;;;6.07;77.95;93357.41;1647397;87;20960;-48
2022/04/23 02:23:13;;;;;;;40.67;24.12;;;;;;;6.13;77.87;93349.55;1647839;87;21086;-47
2022/04/23 02:25:39;;;;;;;40.45;25.05;;;;;;;6.15;77.79;93347.74;1628602;86;21427;-47
2022/04/23 02:28:08;;;;;;;38.75;23.45;;;;;;;6.13;77.81;93340.61;1648061;86;20968;-47
2022/04/23 02:30:36;;;;;;;35.85;21.87;;;;;;;6.11;77.85;93334.23;1647710;86;21420;-48
2022/04/23 02:33:03;;;;;;;42.30;24.35;;;;;;;6.10;77.95;93331.94;1647741;87;21028;-50
2022/04/23 02:35:31;;;;;;;49.20;25.72;;;;;;;6.13;77.98;93345.45;1647807;87;21593;-49
2022/04/23 02:38:02;;;;;;;42.60;24.52;;;;;;;6.16;77.71;93338.34;1637974;87;21066;-48
2022/04/23 02:40:28;;;;;;;42.45;26.20;;;;;;;6.12;77.66;93324.83;1646957;86;21466;-48
2022/04/23 02:42:57;;;;;;;50.73;30.15;;;;;;;6.10;77.93;93323.75;1646849;87;21102;-48
2022/04/23 02:45:25;;;;;;;56.28;33.28;;;;;;;6.09;78.29;93323.59;1647837;87;21075;-48
2022/04/23 02:47:54;;;;;;;54.85;31.15;;;;;;;6.13;78.39;93325.59;1647571;87;21067;-48
2022/04/23 02:50:37;;;;;;;51.77;30.88;;;;;;;6.17;78.25;93338.49;1647602;87;21051;-47
2022/04/23 02:53:07;;;;;;;55.90;32.48;;;;;;;6.17;78.11;93326.20;1626849;87;38850;-48
2022/04/23 02:55:36;;;;;;;46.08;28.42;;;;;;;6.18;78.17;93318.17;1647606;87;21157;-48
2022/04/23 02:58:07;;;;;;;48.68;28.02;;;;;;;6.23;77.86;93314.23;1647901;87;21023;-46
2022/04/23 03:00:38;;;;;;;48.02;29.42;;;;;;;6.24;77.73;93314.98;1654470;86;21022;-48
2022/04/23 03:03:08;;;;;;;52.45;31.00;;;;;;;6.22;77.62;93332.42;1647905;87;21047;-48
2022/04/23 03:05:35;;;;;;;43.38;28.42;;;;;;;6.15;77.76;93321.19;1647689;87;21023;-47
2022/04/23 03:08:04;;;;;;;67.62;40.38;;;;;;;6.14;78.01;93335.30;1647414;87;21492;-48
2022/04/23 03:10:33;;;;;;;59.77;34.88;;;;;;;6.13;77.95;93345.45;1647757;87;21026;-48
2022/04/23 03:13:01;;;;;;;48.48;30.52;;;;;;;6.15;78.13;93351.84;1647760;87;21055;-47
2022/04/23 03:15:29;;;;;;;47.83;28.42;;;;;;;6.17;77.96;93343.33;1647563;87;21472;-47
2022/04/23 03:18:09;;;;;;;45.78;26.52;;;;;;;6.19;77.85;93341.52;1647390;87;21003;-47
2022/04/23 03:20:38;;;;;;;39.67;24.45;;;;;;;6.22;77.98;93359.13;1647883;87;20968;-47
2022/04/23 03:23:05;;;;;;;40.10;25.57;;;;;;;6.25;78.12;93358.81;1647564;87;20963;-48
2022/04/23 03:25:32;;;;;;;39.95;24.90;;;;;;;6.29;77.89;93352.59;1647674;87;21075;-48
2022/04/23 03:28:00;;;;;;;46.95;26.70;;;;;;;6.28;77.66;93353.81;1647576;87;21095;-48
2022/04/23 03:30:29;;;;;;;42.25;25.55;;;;;;;6.29;77.81;93363.52;1627542;87;20968;-48
2022/04/23 03:32:56;;;;;;;44.40;26.23;;;;;;;6.32;77.71;93368.09;1647176;87;21161;-47
2022/04/23 03:35:23;;;;;;;51.83;25.88;;;;;;;6.31;77.40;93359.75;1647793;87;21491;-48
2022/04/23 03:37:51;;;;;;;56.77;33.23;;;;;;;6.30;77.45;93363.70;1647685;87;21035;-52
2022/04/23 03:40:19;;;;;;;70.32;37.03;;;;;;;6.23;77.52;93373.53;1647646;87;20991;-49
2022/04/23 03:42:48;;;;;;;59.45;32.90;;;;;;;6.17;77.98;93367.90;1647456;87;21443;-48
2022/04/23 03:45:18;;;;;;;50.80;30.60;;;;;;;6.17;77.97;93374.72;1675159;83;21053;-48
2022/04/23 03:47:48;;;;;;;46.28;29.65;;;;;;;6.11;77.99;93368.94;1692242;83;21035;-48
2022/04/23 03:50:15;;;;;;;65.30;37.40;;;;;;;6.04;78.29;93374.70;1691364;83;21011;-48
2022/04/23 03:52:44;;;;;;;59.55;33.88;;;;;;;6.02;78.40;93373.03;1691456;83;21077;-48
2022/04/23 03:55:11;;;;;;;63.40;33.10;;;;;;;6.03;78.46;93389.56;1698981;84;21601;-48
2022/04/23 03:57:48;;;;;;;57.67;32.50;;;;;;;6.06;78.57;93379.88;1691717;83;21148;-49
2022/04/23 04:00:16;;;;;;;60.12;38.05;;;;;;;6.13;78.88;93378.21;1695645;83;21015;-48
2022/04/23 04:02:44;;;;;;;76.87;37.20;;;;;;;6.21;78.78;93367.17;1692706;83;21478;-50
2022/04/23 04:05:11;;;;;;;59.27;33.75;;;;;;;6.23;78.76;93364.75;1687690;83;21057;-47
2022/04/23 04:07:43;;;;;;;48.13;28.95;;;;;;;6.29;78.76;93364.29;1684822;83;21509;-47
2022/04/23 04:10:13;;;;;;;48.28;28.23;;;;;;;6.34;78.31;93374.61;1699163;84;21206;-48
2022/04/23 04:12:42;;;;;;;51.08;27.55;;;;;;;6.33;78.03;93357.33;1698148;83;21051;-49
2022/04/23 04:15:11;;;;;;;55.50;32.55;;;;;;;6.33;77.90;93361.42;1695659;84;20967;-49
2022/04/23 04:17:40;;;;;;;49.63;32.13;;;;;;;6.30;77.89;93365.06;1702480;83;20959;-49
2022/04/23 04:20:12;;;;;;;49.73;29.42;;;;;;;6.27;77.91;93363.22;1684900;83;21076;-49
2022/04/23 04:22:42;;;;;;;47.60;28.32;;;;;;;6.22;78.04;93366.55;1698678;83;21371;-49
2022/04/23 04:25:11;;;;;;;87.80;49.70;;;;;;;6.20;78.20;93361.56;1688279;83;21053;-50
2022/04/23 04:27:39;;;;;;;56.68;34.83;;;;;;;6.21;78.47;93356.84;1681964;83;21446;-48
2022/04/23 04:30:09;;;;;;;60.35;33.90;;;;;;;6.25;78.26;93356.86;1680287;84;21042;-49
2022/04/23 04:32:38;;;;;;;58.23;30.90;;;;;;;6.28;78.16;93349.71;1695997;84;21550;-49
2022/04/23 04:35:09;;;;;;;70.05;36.88;;;;;;;6.26;78.20;93346.68;1692180;83;21103;-47
2022/04/23 04:37:37;;;;;;;77.03;41.20;;;;;;;6.26;78.26;93352.14;1702990;84;21464;-48
2022/04/23 04:40:06;;;;;;;91.10;46.18;;;;;;;6.23;78.45;93347.00;1695630;84;21502;-48
2022/04/23 04:42:33;;;;;;;87.72;45.08;;;;;;;6.24;78.59;93347.74;1691756;83;21023;-48
2022/04/23 04:45:00;;;;;;;81.72;41.65;;;;;;;6.28;78.53;93342.89;1695678;83;21043;-48
2022/04/23 04:47:29;;;;;;;65.17;35.85;;;;;;;6.34;78.66;93336.38;1699643;83;21137;-48
2022/04/23 04:49:57;;;;;;;60.98;31.55;;;;;;;6.45;78.77;93341.39;1670189;83;20963;-49
2022/04/23 04:52:24;;;;;;;63.08;34.08;;;;;;;6.56;78.24;93341.70;1683610;83;21165;-48
2022/04/23 04:54:52;;;;;;;58.60;34.67;;;;;;;6.57;77.86;93339.90;1694975;83;21011;-49
2022/04/23 04:57:20;;;;;;;58.38;35.20;;;;;;;6.63;77.91;93341.39;1695767;83;21061;-49
2022/04/23 04:59:48;;;;;;;66.60;36.15;;;;;;;6.70;77.77;93345.20;1671374;83;21528;-48
2022/04/23 05:02:15;;;;;;;70.65;39.83;;;;;;;6.74;77.77;93336.23;1698217;83;21416;-47
2022/04/23 05:04:42;;;;;;;70.10;36.93;;;;;;;6.79;77.68;93342.45;1701461;84;21065;-49
2022/04/23 05:07:10;;;;;;;75.17;37.70;;;;;;;6.86;77.49;93344.89;1672015;84;20975;-48
2022/04/23 05:09:38;;;;;;;60.38;35.08;;;;;;;6.94;77.23;93338.66;1695373;83;20979;-49
2022/04/23 05:12:08;;;;;;;64.47;37.48;;;;;;;7.02;76.95;93348.65;1686684;83;21414;-48
2022/04/23 05:14:36;;;;;;;76.37;41.02;;;;;;;7.08;76.85;93346.84;1696743;83;21415;-48
2022/04/23 05:17:04;;;;;;;60.15;36.35;;;;;;;7.12;76.78;93346.21;1692927;83;21042;-48
2022/04/23 05:19:32;;;;;;;85.17;48.80;;;;;;;7.20;76.54;93347.42;1689470;83;21110;-50
2022/04/23 05:22:00;;;;;;;197.87;101.78;;;;;;;7.25;76.44;93350.91;1696560;83;21585;-48
2022/04/23 05:24:27;;;;;;;177.35;91.25;;;;;;;7.29;76.29;93344.66;1686876;83;21139;-49
2022/04/23 05:26:54;;;;;;;158.12;89.70;;;;;;;7.34;75.94;93352.23;1674932;84;20999;-48
2022/04/23 05:29:22;;;;;;;97.08;49.48;;;;;;;7.37;75.54;93351.31;1693662;83;21097;-48
2022/04/23 05:31:50;;;;;;;61.65;38.42;;;;;;;7.41;75.27;93355.26;1699238;83;21066;-47
2022/04/23 05:34:17;;;;;;;49.25;31.55;;;;;;;7.42;74.90;93361.66;1697820;84;20983;-49
2022/04/23 05:36:45;;;;;;;49.58;31.77;;;;;;;7.43;74.84;93357.70;1691785;83;20963;-48
2022/04/23 05:39:12;;;;;;;50.15;30.23;;;;;;;7.43;74.67;93360.43;1692494;83;21133;-47
2022/04/23 05:41:38;;;;;;;53.30;31.70;;;;;;;7.43;74.64;93360.43;1680931;83;21011;-48
2022/04/23 05:44:05;;;;;;;49.58;30.52;;;;;;;7.43;74.42;93360.43;1699282;83;21738;-48
2022/04/23 05:46:34;;;;;;;55.28;33.63;;;;;;;7.45;74.29;93359.95;1703659;83;21031;-49
2022/04/23 05:49:03;;;;;;;50.83;34.08;;;;;;;7.44;74.10;93367.42;1691248;83;21157;-49
2022/04/23 05:51:31;;;;;;;44.38;31.25;;;;;;;7.41;74.19;93366.98;1694374;83;21015;-53
2022/04/23 05:54:02;;;;;;;49.38;31.23;;;;;;;7.43;74.12;93370.60;1694578;83;21041;-50
2022/04/23 05:56:31;;;;;;;51.33;30.52;;;;;;;7.45;74.15;93377.73;1692063;82;21010;-50
2022/04/23 05:59:01;;;;;;;43.65;28.45;;;;;;;7.48;74.16;93378.21;1670037;84;20962;-51
2022/04/23 06:01:29;;;;;;;44.33;29.10;;;;;;;7.52;74.26;93380.91;1671250;84;21262;-51
2022/04/23 06:04:00;;;;;;;49.53;32.65;;;;;;;7.57;74.61;93386.38;1661188;84;21609;-54
2022/04/23 06:06:29;;;;;;;55.90;35.63;;;;;;;7.61;74.55;93378.76;1698057;83;21491;-51
2022/04/23 06:08:58;;;;;;;47.73;30.05;;;;;;;7.60;74.74;93378.61;1660997;84;21065;-52
2022/04/23 06:11:27;;;;;;;50.98;31.87;;;;;;;7.62;74.93;93386.52;1696317;84;21699;-51
2022/04/23 06:13:55;;;;;;;42.75;28.23;;;;;;;7.60;75.00;93379.98;1664491;83;21223;-50
2022/04/23 06:16:25;;;;;;;50.43;32.85;;;;;;;7.60;75.28;93390.33;1677411;83;21077;-53
2022/04/23 06:18:54;;;;;;;50.60;30.62;;;;;;;7.64;75.91;93395.02;1675807;83;21133;-50
2022/04/23 06:21:23;;;;;;;38.58;27.25;;;;;;;7.73;76.20;93394.98;1666572;83;21034;-53
2022/04/23 06:23:54;;;;;;;36.90;23.90;;;;;;;7.87;76.67;93392.97;1694508;83;21046;-52
2022/04/23 06:26:22;;;;;;;31.52;23.30;;;;;;;8.01;76.49;93399.15;1658301;83;23001;-51
2022/04/23 06:28:50;;;;;;;43.13;30.00;;;;;;;8.06;76.38;93400.51;1695985;83;20963;-52
2022/04/23 06:31:19;;;;;;;44.75;30.95;;;;;;;8.05;76.58;93399.73;1682315;83;21023;-53
2022/04/23 06:33:49;;;;;;;53.65;35.28;;;;;;;8.12;76.27;93400.02;1684293;83;20974;-51
2022/04/23 06:36:18;;;;;;;72.20;42.45;;;;;;;8.19;76.30;93396.36;1687588;83;21051;-50
2022/04/23 06:38:46;;;;;;;70.10;43.25;;;;;;;8.25;76.42;93401.34;1696821;83;21834;-49
2022/04/23 06:41:14;;;;;;;69.12;39.58;;;;;;;8.30;76.49;93407.58;1687718;84;21214;-49
2022/04/23 06:43:40;;;;;;;62.03;37.80;;;;;;;8.34;76.77;93408.16;1685951;83;21007;-51
2022/04/23 06:46:07;;;;;;;58.42;36.08;;;;;;;8.43;76.79;93410.83;1694606;84;21015;-50
2022/04/23 06:48:34;;;;;;;55.03;30.45;;;;;;;8.47;76.41;93411.41;1695605;83;21026;-49
2022/04/23 06:51:00;;;;;;;55.55;31.52;;;;;;;8.46;76.23;93411.27;1684259;84;21253;-49
2022/04/23 06:53:28;;;;;;;57.58;34.08;;;;;;;8.45;76.19;93411.12;1695492;83;20955;-48
2022/04/23 06:55:55;;;;;;;53.23;33.23;;;;;;;8.47;76.40;93411.41;1681060;83;21176;-50
2022/04/23 06:58:23;;;;;;;46.85;30.55;;;;;;;8.51;76.41;93415.36;1698109;83;21053;-51
2022/04/23 07:00:52;;;;;;;45.67;30.55;;;;;;;8.52;76.42;93405.91;1669815;83;20963;-51
2022/04/23 07:03:20;;;;;;;34.10;24.80;;;;;;;8.56;76.77;93409.23;1685601;84;21160;-51
2022/04/23 07:05:49;;;;;;;26.73;19.20;;;;;;;8.61;76.62;93417.58;1696915;83;21006;-51
2022/04/23 07:08:20;;;;;;;28.65;18.80;;;;;;;8.63;76.22;93417.86;1684148;83;21227;-54
2022/04/23 07:10:49;;;;;;;26.40;18.45;;;;;;;8.63;76.08;93418.49;1700831;83;21109;-50
2022/04/23 07:13:17;;;;;;;22.93;17.17;;;;;;;8.69;75.88;93420.73;1685514;84;21466;-53
2022/04/23 07:15:46;;;;;;;25.40;17.10;;;;;;;8.73;75.85;93424.05;1651880;84;21093;-53
2022/04/23 07:18:15;;;;;;;28.57;19.17;;;;;;;8.74;76.03;93424.96;1690209;83;21438;-51
2022/04/23 07:20:44;;;;;;;25.57;18.62;;;;;;;8.75;76.12;93422.37;1695356;83;21019;-51
2022/04/23 07:25:59;;;;;;;23.25;16.82;;;;;;;8.89;76.51;93431.27;1686187;83;20942;-52
2022/04/23 07:28:30;;;;;;;20.45;15.65;;;;;;;8.89;76.75;93427.16;1679597;83;21158;-53
2022/04/23 07:30:58;;;;;;;23.27;17.57;;;;;;;8.95;77.19;93430.16;1700395;83;20932;-52
2022/04/23 07:39:01;;;;;;;26.25;16.80;;;;;;;9.50;77.08;93427.70;1675684;84;21106;-49
2022/04/23 07:41:28;;;;;;;20.62;14.23;;;;;;;9.68;76.72;93425.55;1680541;83;21303;-49
2022/04/23 07:43:56;;;;;;;19.57;16.00;;;;;;;9.84;75.94;93424.31;1671271;84;21030;-51
2022/04/23 07:46:24;;;;;;;23.62;16.35;;;;;;;9.91;75.35;93423.92;1675775;83;20987;-51
2022/04/23 07:48:53;;;;;;;22.67;18.00;;;;;;;9.98;75.48;93423.56;1671902;84;21168;-58
2022/04/23 07:51:20;;;;;;;21.50;17.87;;;;;;;10.10;75.81;93428.02;1658218;84;21602;-49
2022/04/23 07:53:48;;;;;;;22.70;15.78;;;;;;;10.28;75.81;93427.80;1676424;84;22129;-51
2022/04/23 07:56:16;;;;;;;24.10;16.00;;;;;;;10.45;74.94;93431.56;1693524;83;21023;-51
2022/04/23 07:58:43;;;;;;;21.25;15.32;;;;;;;10.53;74.28;93429.31;1694772;84;21528;-49
2022/04/23 08:01:10;;;;;;;24.85;16.77;;;;;;;10.62;73.76;93434.70;1676536;83;21509;-49
2022/04/23 08:03:38;;;;;;;18.52;13.78;;;;;;;10.71;73.23;93428.33;1682747;84;20971;-49
2022/04/23 08:06:05;;;;;;;23.55;16.60;;;;;;;10.80;72.26;93435.20;1690529;83;21466;-50
2022/04/23 08:08:32;;;;;;;26.10;19.17;;;;;;;10.88;72.06;93433.57;1700667;83;21291;-50
2022/04/23 08:10:59;;;;;;;22.73;16.97;;;;;;;10.96;72.49;93437.42;1711626;83;20990;-50
2022/04/23 08:13:27;;;;;;;23.38;18.32;;;;;;;11.08;72.48;93441.83;1693605;83;21252;-50
2022/04/23 08:15:53;;;;;;;17.57;13.18;;;;;;;11.14;72.13;93432.28;1699217;83;21160;-50
2022/04/23 08:18:20;;;;;;;16.35;12.15;;;;;;;11.21;71.55;93435.34;1706862;83;21238;-47
2022/04/23 08:20:51;;;;;;;20.52;15.30;;;;;;;11.28;70.02;93428.06;1701038;83;21078;-51
2022/04/23 08:23:19;;;;;;;22.42;15.18;;;;;;;11.33;69.84;93431.48;1691555;83;20976;-51
2022/04/23 08:25:47;;;;;;;28.02;16.42;;;;;;;11.37;70.14;93434.05;1694144;83;21098;-50
2022/04/23 08:31:01;;;;;;;25.05;18.85;;;;;;;11.28;70.23;93432.19;1682798;84;21185;-49
2022/04/23 08:36:18;;;;;;;35.10;21.97;;;;;;;11.17;70.35;93431.30;1651887;85;21548;-50
2022/04/23 08:38:46;;;;;;;33.78;22.70;;;;;;;11.22;70.50;93429.23;1654577;84;21039;-51
2022/04/23 08:41:14;;;;;;;28.65;20.80;;;;;;;11.25;70.35;93432.39;1679893;84;21500;-53
2022/04/23 08:43:42;;;;;;;31.17;20.68;;;;;;;11.22;70.59;93441.62;1641389;85;21189;-49
2022/04/23 08:46:09;;;;;;;31.90;21.97;;;;;;;11.18;70.75;93435.57;1677202;85;20976;-50
2022/04/23 08:48:40;;;;;;;34.45;23.87;;;;;;;11.22;70.79;93438.26;1661546;85;21163;-49
2022/04/23 08:51:11;;;;;;;37.88;25.00;;;;;;;11.33;71.02;93439.01;1638289;86;20982;-50
2022/04/23 08:53:40;;;;;;;36.38;25.32;;;;;;;11.41;70.67;93442.84;1668701;85;20971;-50
2022/04/23 08:56:08;;;;;;;40.30;27.60;;;;;;;11.45;70.86;93433.74;1665513;84;21290;-50
2022/04/23 08:58:39;;;;;;;34.23;25.70;;;;;;;11.37;70.66;93437.54;1677044;84;20998;-49
2022/04/23 09:01:08;;;;;;;;;;;;;;;11.31;70.55;93435.34;1663183;85;21025;-50
2022/04/23 09:03:34;;;;;;;32.15;21.75;;;;;;;11.25;70.97;93436.52;1662729;84;20146;-50
2022/04/23 09:06:01;;;;;;;41.77;23.83;;;;;;;11.17;70.85;93438.19;1672632;85;21550;-49
2022/04/23 09:08:30;;;;;;;32.03;22.40;;;;;;;11.19;71.33;93439.20;1676750;84;21009;-50
2022/04/23 09:10:57;;;;;;;31.80;21.60;;;;;;;11.34;71.20;93444.02;1669598;84;21114;-49
2022/04/23 09:13:30;;;;;;;43.48;27.67;;;;;;;11.49;70.93;93444.70;1642730;86;21466;-50
2022/04/23 09:24:47;;;;;;;43.20;28.17;;;;;;;11.70;71.81;93446.20;1676393;85;21056;-49
2022/04/23 09:27:15;;;;;;;39.23;27.90;;;;;;;11.72;71.77;93441.59;1678566;85;21083;-50
2022/04/23 09:29:58;;;;;;;34.05;25.17;;;;;;;11.75;71.55;93433.09;1686230;84;21099;-50
2022/04/23 09:32:27;;;;;;;34.38;25.23;;;;;;;11.79;71.38;93439.17;1668569;84;21089;-49
2022/04/23 09:35:09;;;;;;;35.78;24.47;;;;;;;11.83;71.40;93438.33;1661330;85;21873;-50
2022/04/23 09:40:25;;;;;;;38.20;26.90;;;;;;;11.94;70.86;93449.44;1677434;84;21108;-49
2022/04/23 09:43:00;;;;;;;38.50;27.95;;;;;;;11.89;71.17;93448.77;1660564;85;21103;-51
2022/04/23 09:45:31;;;;;;;37.65;26.27;;;;;;;11.86;71.78;93451.13;1670048;84;21482;-51
2022/04/23 09:48:17;;;;;;;34.95;24.63;;;;;;;11.88;71.79;93449.27;1647901;85;21465;-49
2022/04/23 09:50:47;;;;;;;45.80;28.38;;;;;;;11.93;71.99;93450.68;1669419;84;21456;-49
2022/04/23 09:53:19;;;;;;;44.18;31.05;;;;;;;11.98;71.73;93446.47;1654870;85;21021;-49
2022/04/23 09:55:51;;;;;;;34.83;26.25;;;;;;;12.13;71.83;93448.50;1663670;85;21523;-49
2022/04/23 09:58:18;;;;;;;36.00;27.67;;;;;;;12.35;71.37;93445.31;1678670;84;21025;-50
2022/04/23 10:00:47;;;;;;;31.30;21.65;;;;;;;12.53;70.77;93442.19;1676042;84;21264;-49
2022/04/23 10:03:15;;;;;;;32.20;22.48;;;;;;;12.69;69.38;93434.66;1668806;84;21101;-51
2022/04/23 10:05:48;;;;;;;35.05;24.15;;;;;;;12.80;68.80;93436.86;1657017;84;21145;-50
2022/04/23 10:08:20;;;;;;;27.05;20.02;;;;;;;12.94;68.54;93437.97;1661241;85;21081;-52
2022/04/23 10:10:54;;;;;;;29.00;20.43;;;;;;;13.08;67.87;93437.05;1617899;88;21024;-50
2022/04/23 10:13:25;;;;;;;35.43;26.05;;;;;;;13.17;67.44;93436.83;1645647;86;20967;-51
2022/04/23 10:15:54;;;;;;;37.05;25.00;;;;;;;13.24;67.57;93425.33;1641171;86;21096;-49
2022/04/23 10:18:22;;;;;;;29.55;21.57;;;;;;;13.29;67.87;93430.11;1609320;88;21119;-48
2022/04/23 10:20:57;;;;;;;30.97;23.27;;;;;;;13.41;67.69;93432.41;1618473;86;21123;-49
2022/04/23 10:23:50;;;;;;;28.85;20.72;;;;;;;13.58;67.87;93429.70;1611554;86;21084;-50
2022/04/23 10:26:43;;;;;;;;;;;;;;;13.72;67.97;93431.51;1644652;86;21285;-51
2022/04/23 10:29:17;;;;;;;29.75;18.92;;;;;;;13.85;67.37;93434.56;1633012;86;20141;-49
2022/04/23 10:31:45;;;;;;;29.82;20.08;;;;;;;14.04;67.75;93424.54;1630346;86;21102;-49
2022/04/23 10:34:32;;;;;;;28.83;21.20;;;;;;;14.34;67.02;93419.44;1609671;86;21256;-48
2022/04/23 10:37:18;;;;;;;27.05;19.85;;;;;;;14.69;65.81;93420.44;1633447;86;21006;-49
2022/04/23 10:39:55;;;;;;;19.77;16.02;;;;;;;14.89;64.11;93424.31;1628164;86;21322;-49
2022/04/23 10:42:25;;;;;;;19.82;14.33;;;;;;;14.96;63.37;93422.39;1638815;86;21566;-49
2022/04/23 10:44:56;;;;;;;26.70;18.60;;;;;;;15.08;63.22;93428.05;1637350;86;21070;-49
2022/04/23 10:47:34;;;;;;;24.52;19.37;;;;;;;15.17;62.53;93431.91;1644817;87;21015;-50
2022/04/23 10:50:22;;;;;;;27.87;20.60;;;;;;;15.18;62.60;93436.83;1626333;86;20983;-50
2022/04/23 10:52:50;;;;;;;27.40;19.40;;;;;;;15.12;63.47;93434.07;1633306;87;21003;-49
2022/04/23 10:55:18;;;;;;;32.48;22.35;;;;;;;15.06;63.43;93431.95;1636636;87;21020;-50
2022/04/23 10:57:53;;;;;;;27.48;20.75;;;;;;;15.04;64.04;93427.53;1635932;86;20999;-50
2022/04/23 11:00:22;;;;;;;30.88;20.23;;;;;;;15.08;64.13;93427.28;1642334;86;21007;-49
2022/04/23 11:02:57;;;;;;;21.42;16.95;;;;;;;15.13;64.11;93428.66;1637136;87;21207;-49
2022/04/23 11:13:50;;;;;;;19.48;12.18;;;;;;;15.36;63.99;93427.99;1592833;87;21069;-49
2022/04/23 11:16:18;;;;;;;19.90;13.20;;;;;;;15.42;63.52;93432.26;1638900;86;21407;-50
2022/04/23 11:18:47;;;;;;;26.73;17.20;;;;;;;15.40;63.54;93433.37;1633604;87;21212;-57
2022/04/23 11:21:21;;;;;;;25.00;16.42;;;;;;;15.40;63.60;93437.53;1643468;86;21080;-50
2022/04/23 11:23:50;;;;;;;21.68;15.25;;;;;;;15.39;63.71;93437.41;1611904;87;21459;-49
2022/04/23 11:26:22;;;;;;;30.15;17.98;;;;;;;15.34;63.45;93450.66;1633732;86;20971;-50
2022/04/23 11:29:00;;;;;;;26.60;16.70;;;;;;;15.26;63.47;93449.66;1622384;86;21482;-49
2022/04/23 11:31:28;;;;;;;24.02;14.18;;;;;;;15.08;64.29;93448.81;1637189;87;21257;-48
2022/04/23 11:33:57;;;;;;;19.25;13.80;;;;;;;14.98;64.94;93446.83;1641390;87;21534;-49
2022/04/23 11:36:30;;;;;;;18.52;12.63;;;;;;;14.91;65.19;93450.86;1617830;86;21022;-50
2022/04/23 11:38:59;;;;;;;20.72;14.05;;;;;;;14.81;65.81;93446.09;1623856;87;21459;-49
2022/04/23 11:41:38;;;;;;;23.05;13.90;;;;;;;14.70;66.06;93449.62;1611274;87;20983;-50
2022/04/23 11:47:15;;;;;;;14.43;11.08;;;;;;;14.54;66.52;93449.62;1621497;87;21447;-50
2022/04/23 11:49:42;;;;;;;13.30;10.82;;;;;;;14.50;66.40;93453.27;1644768;87;21522;-52
2022/04/23 11:52:12;;;;;;;17.95;12.07;;;;;;;14.46;66.39;93456.28;1643809;86;21035;-48
2022/04/23 11:54:44;;;;;;;16.17;12.07;;;;;;;14.45;66.22;93449.89;1636602;87;21434;-50
2022/04/23 11:57:16;;;;;;;21.95;15.03;;;;;;;14.41;66.47;93451.39;1642549;86;21209;-50
2022/04/23 11:59:47;;;;;;;18.55;13.83;;;;;;;14.41;66.63;93445.85;1631879;86;21012;-50
2022/04/23 12:02:23;;;;;;;22.10;15.72;;;;;;;14.50;66.90;93452.66;1624840;86;21030;-49
2022/04/23 12:04:59;;;;;;;19.55;13.38;;;;;;;14.58;66.23;93445.34;1665264;84;21536;-51
2022/04/23 12:07:28;;;;;;;18.52;12.18;;;;;;;14.65;65.81;93443.45;1674844;84;21098;-51